sensor_id;sensor_type;location;lat;lon;timestamp;P1;durP1;ratioP1;P2;durP2;ratioP2
38224;SDS011;24025;48.138;11.428;2022-11-11T00:01:29;6.82;;;2.83;;
38224;SDS011;24025;48.138;11.428;2022-11-11T00:04:00;4.78;;;2.67;;
38224;SDS011;24025;48.138;11.428;2022-11-11T00:06:30;4.63;;;2.85;;
38224;SDS011;24025;48.138;11.428;2022-11-11T00:09:01;5.63;;;2.92;;
38224;SDS011;24025;48.138;11.428;2022-11-11T00:11:31;4.18;;;2.95;;
38224;SDS011;24025;48.138;11.428;2022-11-11T00:14:01;6.15;;;2.78;;
38224;SDS011;24025;48.138;11.428;2022-11-11T00:16:32;6.35;;;2.17;;
38224;SDS011;24025;48.138;11.428;2022-11-11T00:19:22;5.25;;;2.25;;
38224;SDS011;24025;48.138;11.428;2022-11-11T00:22:21;5.70;;;1.90;;
38224;SDS011;24025;48.138;11.428;2022-11-11T00:25:13;5.72;;;2.72;;
38224;SDS011;24025;48.138;11.428;2022-11-11T00:27:46;8.88;;;3.05;;
38224;SDS011;24025;48.138;11.428;2022-11-11T00:30:16;7.38;;;3.40;;
38224;SDS011;24025;48.138;11.428;2022-11-11T00:32:47;6.55;;;2.58;;
38224;SDS011;24025;48.138;11.428;2022-11-11T00:35:17;3.53;;;2.33;;
38224;SDS011;24025;48.138;11.428;2022-11-11T00:38:07;4.38;;;2.67;;
38224;SDS011;24025;48.138;11.428;2022-11-11T00:41:01;6.65;;;3.08;;
38224;SDS011;24025;48.138;11.428;2022-11-11T00:43:32;7.05;;;2.85;;
38224;SDS011;24025;48.138;11.428;2022-11-11T00:46:02;4.20;;;2.53;;
38224;SDS011;24025;48.138;11.428;2022-11-11T00:48:52;3.63;;;2.22;;
38224;SDS011;24025;48.138;11.428;2022-11-11T00:51:42;4.05;;;1.88;;
38224;SDS011;24025;48.138;11.428;2022-11-11T00:54:12;4.03;;;2.20;;
38224;SDS011;24025;48.138;11.428;2022-11-11T00:56:43;4.88;;;2.30;;
38224;SDS011;24025;48.138;11.428;2022-11-11T00:59:13;6.13;;;2.03;;
38224;SDS011;24025;48.138;11.428;2022-11-11T01:01:43;5.68;;;1.80;;
38224;SDS011;24025;48.138;11.428;2022-11-11T01:04:14;4.25;;;1.90;;
38224;SDS011;24025;48.138;11.428;2022-11-11T01:06:45;5.57;;;1.50;;
38224;SDS011;24025;48.138;11.428;2022-11-11T01:09:15;3.55;;;1.65;;
38224;SDS011;24025;48.138;11.428;2022-11-11T01:11:45;2.38;;;1.80;;
38224;SDS011;24025;48.138;11.428;2022-11-11T01:14:16;3.35;;;1.90;;
38224;SDS011;24025;48.138;11.428;2022-11-11T01:16:46;2.85;;;1.73;;
38224;SDS011;24025;48.138;11.428;2022-11-11T01:19:16;4.30;;;1.42;;
38224;SDS011;24025;48.138;11.428;2022-11-11T01:21:47;3.28;;;1.85;;
38224;SDS011;24025;48.138;11.428;2022-11-11T01:24:17;4.88;;;1.70;;
38224;SDS011;24025;48.138;11.428;2022-11-11T01:26:48;3.00;;;1.75;;
38224;SDS011;24025;48.138;11.428;2022-11-11T01:29:18;2.97;;;1.73;;
38224;SDS011;24025;48.138;11.428;2022-11-11T01:31:48;4.82;;;1.88;;
38224;SDS011;24025;48.138;11.428;2022-11-11T01:34:19;4.18;;;1.80;;
38224;SDS011;24025;48.138;11.428;2022-11-11T01:36:49;3.80;;;1.77;;
38224;SDS011;24025;48.138;11.428;2022-11-11T01:39:20;3.65;;;1.67;;
38224;SDS011;24025;48.138;11.428;2022-11-11T01:41:50;6.50;;;2.10;;
38224;SDS011;24025;48.138;11.428;2022-11-11T01:47:12;4.07;;;1.85;;
38224;SDS011;24025;48.138;11.428;2022-11-11T01:55:03;1.50;;;1.35;;
38224;SDS011;24025;48.138;11.428;2022-11-11T01:57:37;5.47;;;2.10;;
38224;SDS011;24025;48.138;11.428;2022-11-11T02:00:18;4.13;;;1.58;;
38224;SDS011;24025;48.138;11.428;2022-11-11T02:02:50;2.97;;;1.48;;
38224;SDS011;24025;48.138;11.428;2022-11-11T02:05:23;4.05;;;1.73;;
38224;SDS011;24025;48.138;11.428;2022-11-11T02:08:16;5.07;;;1.77;;
38224;SDS011;24025;48.138;11.428;2022-11-11T02:11:08;4.32;;;2.00;;
38224;SDS011;24025;48.138;11.428;2022-11-11T02:13:45;3.08;;;1.48;;
38224;SDS011;24025;48.138;11.428;2022-11-11T02:16:34;5.45;;;1.20;;
38224;SDS011;24025;48.138;11.428;2022-11-11T02:19:05;3.47;;;1.75;;
38224;SDS011;24025;48.138;11.428;2022-11-11T02:21:36;5.25;;;1.88;;
38224;SDS011;24025;48.138;11.428;2022-11-11T02:24:16;2.72;;;1.50;;
38224;SDS011;24025;48.138;11.428;2022-11-11T02:26:49;4.55;;;1.40;;
38224;SDS011;24025;48.138;11.428;2022-11-11T02:29:22;4.85;;;1.52;;
38224;SDS011;24025;48.138;11.428;2022-11-11T02:31:53;5.65;;;1.55;;
38224;SDS011;24025;48.138;11.428;2022-11-11T02:34:30;3.70;;;1.40;;
38224;SDS011;24025;48.138;11.428;2022-11-11T02:37:03;4.75;;;1.30;;
38224;SDS011;24025;48.138;11.428;2022-11-11T02:39:39;2.67;;;1.25;;
38224;SDS011;24025;48.138;11.428;2022-11-11T02:42:17;2.50;;;1.17;;
38224;SDS011;24025;48.138;11.428;2022-11-11T02:44:50;4.20;;;1.58;;
38224;SDS011;24025;48.138;11.428;2022-11-11T02:47:27;5.72;;;1.15;;
38224;SDS011;24025;48.138;11.428;2022-11-11T02:49:57;2.65;;;1.30;;
38224;SDS011;24025;48.138;11.428;2022-11-11T02:52:28;3.00;;;1.58;;
38224;SDS011;24025;48.138;11.428;2022-11-11T02:54:58;7.43;;;1.17;;
38224;SDS011;24025;48.138;11.428;2022-11-11T02:57:29;4.32;;;1.30;;
38224;SDS011;24025;48.138;11.428;2022-11-11T03:00:00;3.72;;;1.13;;
38224;SDS011;24025;48.138;11.428;2022-11-11T03:02:31;3.93;;;1.00;;
38224;SDS011;24025;48.138;11.428;2022-11-11T03:05:01;2.30;;;1.05;;
38224;SDS011;24025;48.138;11.428;2022-11-11T03:07:32;2.85;;;1.30;;
38224;SDS011;24025;48.138;11.428;2022-11-11T03:10:02;2.05;;;0.82;;
38224;SDS011;24025;48.138;11.428;2022-11-11T03:12:33;2.78;;;1.13;;
38224;SDS011;24025;48.138;11.428;2022-11-11T03:15:03;2.08;;;0.95;;
38224;SDS011;24025;48.138;11.428;2022-11-11T03:17:35;4.43;;;1.10;;
38224;SDS011;24025;48.138;11.428;2022-11-11T03:20:12;2.85;;;1.20;;
38224;SDS011;24025;48.138;11.428;2022-11-11T03:25:37;3.08;;;1.38;;
38224;SDS011;24025;48.138;11.428;2022-11-11T03:28:10;2.85;;;1.45;;
38224;SDS011;24025;48.138;11.428;2022-11-11T03:30:42;2.50;;;1.53;;
38224;SDS011;24025;48.138;11.428;2022-11-11T03:33:14;2.47;;;1.20;;
38224;SDS011;24025;48.138;11.428;2022-11-11T03:35:46;1.85;;;1.20;;
38224;SDS011;24025;48.138;11.428;2022-11-11T03:38:16;4.43;;;1.40;;
38224;SDS011;24025;48.138;11.428;2022-11-11T03:40:54;3.08;;;1.60;;
38224;SDS011;24025;48.138;11.428;2022-11-11T03:43:30;3.08;;;1.05;;
38224;SDS011;24025;48.138;11.428;2022-11-11T03:46:03;3.67;;;1.67;;
38224;SDS011;24025;48.138;11.428;2022-11-11T03:48:34;3.78;;;1.60;;
38224;SDS011;24025;48.138;11.428;2022-11-11T03:51:04;3.42;;;2.00;;
38224;SDS011;24025;48.138;11.428;2022-11-11T03:53:35;4.80;;;2.08;;
38224;SDS011;24025;48.138;11.428;2022-11-11T03:56:05;5.10;;;2.58;;
38224;SDS011;24025;48.138;11.428;2022-11-11T03:58:36;5.20;;;2.53;;
38224;SDS011;24025;48.138;11.428;2022-11-11T04:01:06;7.18;;;3.03;;
38224;SDS011;24025;48.138;11.428;2022-11-11T04:03:56;7.07;;;2.95;;
38224;SDS011;24025;48.138;11.428;2022-11-11T04:06:45;7.25;;;3.17;;
38224;SDS011;24025;48.138;11.428;2022-11-11T04:09:35;4.38;;;1.90;;
38224;SDS011;24025;48.138;11.428;2022-11-11T04:12:23;3.35;;;1.90;;
38224;SDS011;24025;48.138;11.428;2022-11-11T04:14:55;6.32;;;2.90;;
38224;SDS011;24025;48.138;11.428;2022-11-11T04:17:44;5.28;;;1.98;;
38224;SDS011;24025;48.138;11.428;2022-11-11T04:20:15;2.67;;;1.33;;
38224;SDS011;24025;48.138;11.428;2022-11-11T04:23:04;4.93;;;1.25;;
38224;SDS011;24025;48.138;11.428;2022-11-11T04:25:34;4.40;;;1.45;;
38224;SDS011;24025;48.138;11.428;2022-11-11T04:28:18;2.03;;;1.30;;
38224;SDS011;24025;48.138;11.428;2022-11-11T04:31:06;3.85;;;1.42;;
38224;SDS011;24025;48.138;11.428;2022-11-11T04:33:37;3.00;;;1.27;;
38224;SDS011;24025;48.138;11.428;2022-11-11T04:36:07;2.72;;;1.10;;
38224;SDS011;24025;48.138;11.428;2022-11-11T04:38:37;2.10;;;0.80;;
38224;SDS011;24025;48.138;11.428;2022-11-11T04:41:26;1.27;;;0.77;;
38224;SDS011;24025;48.138;11.428;2022-11-11T04:43:57;1.30;;;0.90;;
38224;SDS011;24025;48.138;11.428;2022-11-11T04:46:56;3.70;;;0.90;;
38224;SDS011;24025;48.138;11.428;2022-11-11T04:49:27;2.20;;;0.85;;
38224;SDS011;24025;48.138;11.428;2022-11-11T04:51:57;1.70;;;0.90;;
38224;SDS011;24025;48.138;11.428;2022-11-11T04:54:46;2.42;;;0.90;;
38224;SDS011;24025;48.138;11.428;2022-11-11T04:57:40;2.13;;;0.90;;
38224;SDS011;24025;48.138;11.428;2022-11-11T05:00:13;2.60;;;0.75;;
38224;SDS011;24025;48.138;11.428;2022-11-11T05:02:45;2.03;;;0.75;;
38224;SDS011;24025;48.138;11.428;2022-11-11T05:05:33;2.08;;;1.20;;
38224;SDS011;24025;48.138;11.428;2022-11-11T05:08:22;2.13;;;0.95;;
38224;SDS011;24025;48.138;11.428;2022-11-11T05:11:12;2.58;;;1.00;;
38224;SDS011;24025;48.138;11.428;2022-11-11T05:13:42;1.13;;;0.75;;
38224;SDS011;24025;48.138;11.428;2022-11-11T05:16:32;1.95;;;0.98;;
38224;SDS011;24025;48.138;11.428;2022-11-11T05:19:26;2.28;;;0.80;;
38224;SDS011;24025;48.138;11.428;2022-11-11T05:22:17;1.23;;;0.82;;
38224;SDS011;24025;48.138;11.428;2022-11-11T05:24:48;2.20;;;1.40;;
38224;SDS011;24025;48.138;11.428;2022-11-11T05:27:38;1.90;;;0.90;;
38224;SDS011;24025;48.138;11.428;2022-11-11T05:30:10;2.67;;;1.52;;
38224;SDS011;24025;48.138;11.428;2022-11-11T05:32:42;2.33;;;1.45;;
38224;SDS011;24025;48.138;11.428;2022-11-11T05:35:13;3.55;;;1.20;;
38224;SDS011;24025;48.138;11.428;2022-11-11T05:37:44;5.07;;;1.05;;
38224;SDS011;24025;48.138;11.428;2022-11-11T05:40:34;5.30;;;1.13;;
38224;SDS011;24025;48.138;11.428;2022-11-11T05:43:05;1.98;;;1.63;;
38224;SDS011;24025;48.138;11.428;2022-11-11T05:45:35;2.90;;;1.33;;
38224;SDS011;24025;48.138;11.428;2022-11-11T05:48:06;7.60;;;1.35;;
38224;SDS011;24025;48.138;11.428;2022-11-11T05:50:36;6.25;;;1.48;;
38224;SDS011;24025;48.138;11.428;2022-11-11T05:53:10;7.88;;;1.20;;
38224;SDS011;24025;48.138;11.428;2022-11-11T05:55:40;6.22;;;1.92;;
38224;SDS011;24025;48.138;11.428;2022-11-11T05:58:11;6.05;;;1.83;;
38224;SDS011;24025;48.138;11.428;2022-11-11T06:00:41;2.92;;;1.58;;
38224;SDS011;24025;48.138;11.428;2022-11-11T06:03:11;3.08;;;1.50;;
38224;SDS011;24025;48.138;11.428;2022-11-11T06:05:42;1.95;;;1.10;;
38224;SDS011;24025;48.138;11.428;2022-11-11T06:08:12;3.83;;;1.55;;
38224;SDS011;24025;48.138;11.428;2022-11-11T06:10:43;4.50;;;2.17;;
38224;SDS011;24025;48.138;11.428;2022-11-11T06:13:13;2.72;;;1.55;;
38224;SDS011;24025;48.138;11.428;2022-11-11T06:15:44;4.10;;;1.45;;
38224;SDS011;24025;48.138;11.428;2022-11-11T06:18:15;3.58;;;1.67;;
38224;SDS011;24025;48.138;11.428;2022-11-11T06:20:45;8.20;;;1.63;;
38224;SDS011;24025;48.138;11.428;2022-11-11T06:23:15;5.78;;;1.60;;
38224;SDS011;24025;48.138;11.428;2022-11-11T06:25:46;3.85;;;1.40;;
38224;SDS011;24025;48.138;11.428;2022-11-11T06:28:36;3.20;;;1.38;;
38224;SDS011;24025;48.138;11.428;2022-11-11T06:31:07;2.28;;;1.23;;
38224;SDS011;24025;48.138;11.428;2022-11-11T06:36:10;2.50;;;1.70;;
38224;SDS011;24025;48.138;11.428;2022-11-11T06:38:43;4.40;;;1.40;;
38224;SDS011;24025;48.138;11.428;2022-11-11T06:41:14;4.15;;;1.17;;
38224;SDS011;24025;48.138;11.428;2022-11-11T06:43:45;2.58;;;1.55;;
38224;SDS011;24025;48.138;11.428;2022-11-11T06:46:16;2.58;;;1.20;;
38224;SDS011;24025;48.138;11.428;2022-11-11T06:48:51;3.15;;;1.27;;
38224;SDS011;24025;48.138;11.428;2022-11-11T06:51:22;5.72;;;1.52;;
38224;SDS011;24025;48.138;11.428;2022-11-11T06:53:52;9.30;;;2.03;;
38224;SDS011;24025;48.138;11.428;2022-11-11T06:56:22;5.00;;;1.58;;
38224;SDS011;24025;48.138;11.428;2022-11-11T06:58:53;3.90;;;1.17;;
38224;SDS011;24025;48.138;11.428;2022-11-11T07:01:23;3.47;;;1.52;;
38224;SDS011;24025;48.138;11.428;2022-11-11T07:03:54;5.13;;;1.90;;
38224;SDS011;24025;48.138;11.428;2022-11-11T07:06:24;4.82;;;1.42;;
38224;SDS011;24025;48.138;11.428;2022-11-11T07:08:54;2.10;;;1.52;;
38224;SDS011;24025;48.138;11.428;2022-11-11T07:11:25;3.08;;;1.45;;
38224;SDS011;24025;48.138;11.428;2022-11-11T07:13:55;3.15;;;1.70;;
38224;SDS011;24025;48.138;11.428;2022-11-11T07:16:26;3.55;;;1.60;;
38224;SDS011;24025;48.138;11.428;2022-11-11T07:18:56;3.38;;;1.30;;
38224;SDS011;24025;48.138;11.428;2022-11-11T07:21:26;6.20;;;1.80;;
38224;SDS011;24025;48.138;11.428;2022-11-11T07:23:57;8.63;;;2.10;;
38224;SDS011;24025;48.138;11.428;2022-11-11T07:26:27;10.27;;;2.38;;
38224;SDS011;24025;48.138;11.428;2022-11-11T07:28:57;3.38;;;2.30;;
38224;SDS011;24025;48.138;11.428;2022-11-11T07:31:28;5.88;;;2.40;;
38224;SDS011;24025;48.138;11.428;2022-11-11T07:33:59;8.57;;;2.38;;
38224;SDS011;24025;48.138;11.428;2022-11-11T07:36:29;3.20;;;2.05;;
38224;SDS011;24025;48.138;11.428;2022-11-11T07:39:00;6.40;;;2.63;;
38224;SDS011;24025;48.138;11.428;2022-11-11T07:41:30;4.68;;;2.50;;
38224;SDS011;24025;48.138;11.428;2022-11-11T07:44:01;6.65;;;2.90;;
38224;SDS011;24025;48.138;11.428;2022-11-11T07:46:31;11.82;;;2.67;;
38224;SDS011;24025;48.138;11.428;2022-11-11T07:49:02;6.80;;;3.10;;
38224;SDS011;24025;48.138;11.428;2022-11-11T07:51:32;7.32;;;3.10;;
38224;SDS011;24025;48.138;11.428;2022-11-11T07:54:02;13.68;;;4.22;;
38224;SDS011;24025;48.138;11.428;2022-11-11T07:56:33;10.55;;;4.07;;
38224;SDS011;24025;48.138;11.428;2022-11-11T07:59:03;9.13;;;4.20;;
38224;SDS011;24025;48.138;11.428;2022-11-11T08:01:34;7.63;;;3.25;;
38224;SDS011;24025;48.138;11.428;2022-11-11T08:04:04;10.00;;;3.33;;
38224;SDS011;24025;48.138;11.428;2022-11-11T08:06:34;9.60;;;2.55;;
38224;SDS011;24025;48.138;11.428;2022-11-11T08:09:05;7.20;;;1.92;;
38224;SDS011;24025;48.138;11.428;2022-11-11T08:11:35;8.57;;;2.05;;
38224;SDS011;24025;48.138;11.428;2022-11-11T08:14:24;6.82;;;2.22;;
38224;SDS011;24025;48.138;11.428;2022-11-11T08:16:55;8.50;;;2.38;;
38224;SDS011;24025;48.138;11.428;2022-11-11T08:19:25;6.85;;;2.92;;
38224;SDS011;24025;48.138;11.428;2022-11-11T08:21:55;4.35;;;2.00;;
38224;SDS011;24025;48.138;11.428;2022-11-11T08:24:26;5.53;;;2.30;;
38224;SDS011;24025;48.138;11.428;2022-11-11T08:26:59;7.68;;;2.20;;
38224;SDS011;24025;48.138;11.428;2022-11-11T08:29:29;4.05;;;1.80;;
38224;SDS011;24025;48.138;11.428;2022-11-11T08:31:59;2.85;;;1.38;;
38224;SDS011;24025;48.138;11.428;2022-11-11T08:34:30;5.10;;;2.10;;
38224;SDS011;24025;48.138;11.428;2022-11-11T08:37:00;11.27;;;2.53;;
38224;SDS011;24025;48.138;11.428;2022-11-11T08:39:31;7.68;;;2.38;;
38224;SDS011;24025;48.138;11.428;2022-11-11T08:42:01;3.58;;;2.00;;
38224;SDS011;24025;48.138;11.428;2022-11-11T08:44:32;5.85;;;1.92;;
38224;SDS011;24025;48.138;11.428;2022-11-11T08:47:02;7.82;;;1.42;;
38224;SDS011;24025;48.138;11.428;2022-11-11T08:49:32;2.13;;;1.13;;
38224;SDS011;24025;48.138;11.428;2022-11-11T08:52:03;3.17;;;1.50;;
38224;SDS011;24025;48.138;11.428;2022-11-11T08:54:33;2.83;;;1.55;;
38224;SDS011;24025;48.138;11.428;2022-11-11T08:57:04;3.10;;;1.65;;
38224;SDS011;24025;48.138;11.428;2022-11-11T08:59:34;5.85;;;1.60;;
38224;SDS011;24025;48.138;11.428;2022-11-11T09:02:05;5.47;;;1.95;;
38224;SDS011;24025;48.138;11.428;2022-11-11T09:04:39;2.67;;;1.20;;
38224;SDS011;24025;48.138;11.428;2022-11-11T09:07:10;3.50;;;1.20;;
38224;SDS011;24025;48.138;11.428;2022-11-11T09:09:41;1.50;;;1.40;;
38224;SDS011;24025;48.138;11.428;2022-11-11T09:12:11;3.10;;;0.82;;
38224;SDS011;24025;48.138;11.428;2022-11-11T09:14:42;3.75;;;1.08;;
38224;SDS011;24025;48.138;11.428;2022-11-11T09:17:12;1.60;;;1.45;;
38224;SDS011;24025;48.138;11.428;2022-11-11T09:19:42;4.00;;;1.45;;
38224;SDS011;24025;48.138;11.428;2022-11-11T09:22:13;2.17;;;1.23;;
38224;SDS011;24025;48.138;11.428;2022-11-11T09:24:43;1.80;;;1.00;;
38224;SDS011;24025;48.138;11.428;2022-11-11T09:27:14;4.50;;;0.80;;
38224;SDS011;24025;48.138;11.428;2022-11-11T09:29:44;1.02;;;0.70;;
38224;SDS011;24025;48.138;11.428;2022-11-11T09:32:14;1.98;;;0.90;;
38224;SDS011;24025;48.138;11.428;2022-11-11T09:34:45;1.52;;;0.60;;
38224;SDS011;24025;48.138;11.428;2022-11-11T09:37:15;1.02;;;0.45;;
38224;SDS011;24025;48.138;11.428;2022-11-11T09:39:45;1.35;;;0.60;;
38224;SDS011;24025;48.138;11.428;2022-11-11T09:50:55;4.03;;;0.90;;
38224;SDS011;24025;48.138;11.428;2022-11-11T09:53:35;3.10;;;0.80;;
38224;SDS011;24025;48.138;11.428;2022-11-11T09:56:12;4.78;;;0.70;;
38224;SDS011;24025;48.138;11.428;2022-11-11T09:58:50;3.47;;;1.08;;
38224;SDS011;24025;48.138;11.428;2022-11-11T10:01:28;4.38;;;0.80;;
38224;SDS011;24025;48.138;11.428;2022-11-11T10:07:06;2.30;;;1.15;;
38224;SDS011;24025;48.138;11.428;2022-11-11T10:09:52;1.08;;;0.70;;
38224;SDS011;24025;48.138;11.428;2022-11-11T10:12:32;0.98;;;0.60;;
38224;SDS011;24025;48.138;11.428;2022-11-11T10:15:10;3.97;;;0.82;;
38224;SDS011;24025;48.138;11.428;2022-11-11T10:20:31;1.60;;;0.63;;
38224;SDS011;24025;48.138;11.428;2022-11-11T10:25:52;3.58;;;1.08;;
38224;SDS011;24025;48.138;11.428;2022-11-11T10:28:25;5.55;;;0.80;;
38224;SDS011;24025;48.138;11.428;2022-11-11T10:30:59;6.60;;;0.77;;
38224;SDS011;24025;48.138;11.428;2022-11-11T10:44:21;3.58;;;1.63;;
38224;SDS011;24025;48.138;11.428;2022-11-11T10:49:45;3.20;;;1.42;;
38224;SDS011;24025;48.138;11.428;2022-11-11T10:52:26;4.55;;;1.60;;
38224;SDS011;24025;48.138;11.428;2022-11-11T10:55:37;3.20;;;2.03;;
38224;SDS011;24025;48.138;11.428;2022-11-11T11:01:22;2.83;;;1.40;;
38224;SDS011;24025;48.138;11.428;2022-11-11T11:04:04;1.95;;;1.30;;
38224;SDS011;24025;48.138;11.428;2022-11-11T11:06:41;5.82;;;1.65;;
38224;SDS011;24025;48.138;11.428;2022-11-11T11:09:18;5.18;;;1.45;;
38224;SDS011;24025;48.138;11.428;2022-11-11T11:11:58;2.22;;;1.30;;
38224;SDS011;24025;48.138;11.428;2022-11-11T11:14:41;1.88;;;1.40;;
38224;SDS011;24025;48.138;11.428;2022-11-11T11:17:24;8.90;;;1.35;;
38224;SDS011;24025;48.138;11.428;2022-11-11T11:20:09;2.97;;;1.30;;
38224;SDS011;24025;48.138;11.428;2022-11-11T11:22:44;3.85;;;1.52;;
38224;SDS011;24025;48.138;11.428;2022-11-11T11:25:19;4.82;;;1.92;;
38224;SDS011;24025;48.138;11.428;2022-11-11T11:27:51;7.18;;;1.95;;
38224;SDS011;24025;48.138;11.428;2022-11-11T11:30:24;2.35;;;1.70;;
38224;SDS011;24025;48.138;11.428;2022-11-11T11:32:56;5.78;;;1.60;;
38224;SDS011;24025;48.138;11.428;2022-11-11T11:35:35;6.05;;;2.00;;
38224;SDS011;24025;48.138;11.428;2022-11-11T11:38:10;4.22;;;1.48;;
38224;SDS011;24025;48.138;11.428;2022-11-11T11:43:23;6.68;;;3.08;;
38224;SDS011;24025;48.138;11.428;2022-11-11T11:46:13;4.05;;;2.17;;
38224;SDS011;24025;48.138;11.428;2022-11-11T12:11:35;7.78;;;2.55;;
38224;SDS011;24025;48.138;11.428;2022-11-11T12:17:08;3.45;;;2.03;;
38224;SDS011;24025;48.138;11.428;2022-11-11T12:30:37;6.18;;;2.17;;
38224;SDS011;24025;48.138;11.428;2022-11-11T12:33:29;2.63;;;1.95;;
38224;SDS011;24025;48.138;11.428;2022-11-11T12:36:15;4.93;;;2.15;;
38224;SDS011;24025;48.138;11.428;2022-11-11T12:41:22;6.13;;;2.13;;
38224;SDS011;24025;48.138;11.428;2022-11-11T12:44:10;5.35;;;2.08;;
38224;SDS011;24025;48.138;11.428;2022-11-11T12:52:45;4.82;;;2.60;;
38224;SDS011;24025;48.138;11.428;2022-11-11T12:55:29;6.15;;;1.92;;
38224;SDS011;24025;48.138;11.428;2022-11-11T13:03:50;5.90;;;2.33;;
38224;SDS011;24025;48.138;11.428;2022-11-11T13:06:55;8.55;;;2.65;;
38224;SDS011;24025;48.138;11.428;2022-11-11T13:12:17;7.18;;;2.80;;
38224;SDS011;24025;48.138;11.428;2022-11-11T13:15:01;8.75;;;2.40;;
38224;SDS011;24025;48.138;11.428;2022-11-11T13:17:51;5.32;;;2.63;;
38224;SDS011;24025;48.138;11.428;2022-11-11T13:23:20;3.85;;;2.50;;
38224;SDS011;24025;48.138;11.428;2022-11-11T13:25:52;4.22;;;2.60;;
38224;SDS011;24025;48.138;11.428;2022-11-11T13:28:35;5.22;;;2.60;;
38224;SDS011;24025;48.138;11.428;2022-11-11T13:33:56;9.32;;;2.72;;
38224;SDS011;24025;48.138;11.428;2022-11-11T13:36:34;14.35;;;3.00;;
38224;SDS011;24025;48.138;11.428;2022-11-11T13:39:31;4.40;;;2.53;;
38224;SDS011;24025;48.138;11.428;2022-11-11T13:42:06;3.75;;;2.60;;
38224;SDS011;24025;48.138;11.428;2022-11-11T13:44:49;4.50;;;2.63;;
38224;SDS011;24025;48.138;11.428;2022-11-11T13:47:27;7.35;;;3.17;;
38224;SDS011;24025;48.138;11.428;2022-11-11T13:50:04;6.07;;;3.03;;
38224;SDS011;24025;48.138;11.428;2022-11-11T13:52:40;7.70;;;3.25;;
38224;SDS011;24025;48.138;11.428;2022-11-11T13:55:41;9.73;;;3.28;;
38224;SDS011;24025;48.138;11.428;2022-11-11T14:00:56;9.55;;;2.67;;
38224;SDS011;24025;48.138;11.428;2022-11-11T14:03:31;7.63;;;3.25;;
38224;SDS011;24025;48.138;11.428;2022-11-11T14:13:54;6.22;;;2.45;;
38224;SDS011;24025;48.138;11.428;2022-11-11T14:29:51;8.18;;;2.88;;
38224;SDS011;24025;48.138;11.428;2022-11-11T14:40:52;4.80;;;3.03;;
38224;SDS011;24025;48.138;11.428;2022-11-11T14:43:38;5.47;;;3.30;;
38224;SDS011;24025;48.138;11.428;2022-11-11T14:46:10;6.63;;;3.72;;
38224;SDS011;24025;48.138;11.428;2022-11-11T14:54:19;6.63;;;3.35;;
38224;SDS011;24025;48.138;11.428;2022-11-11T14:57:02;8.48;;;3.83;;
38224;SDS011;24025;48.138;11.428;2022-11-11T14:59:37;10.18;;;5.60;;
38224;SDS011;24025;48.138;11.428;2022-11-11T15:02:10;9.55;;;6.28;;
38224;SDS011;24025;48.138;11.428;2022-11-11T15:04:50;8.85;;;5.40;;
38224;SDS011;24025;48.138;11.428;2022-11-11T15:07:24;8.25;;;5.15;;
38224;SDS011;24025;48.138;11.428;2022-11-11T15:10:21;13.70;;;7.50;;
38224;SDS011;24025;48.138;11.428;2022-11-11T15:21:32;7.35;;;4.28;;
38224;SDS011;24025;48.138;11.428;2022-11-11T15:24:16;8.80;;;4.15;;
38224;SDS011;24025;48.138;11.428;2022-11-11T15:30:12;8.38;;;4.30;;
38224;SDS011;24025;48.138;11.428;2022-11-11T15:38:36;7.05;;;3.83;;
38224;SDS011;24025;48.138;11.428;2022-11-11T15:41:18;7.60;;;4.85;;
38224;SDS011;24025;48.138;11.428;2022-11-11T15:43:52;15.85;;;4.00;;
38224;SDS011;24025;48.138;11.428;2022-11-11T15:46:27;7.57;;;4.85;;
38224;SDS011;24025;48.138;11.428;2022-11-11T15:48:59;6.05;;;3.78;;
38224;SDS011;24025;48.138;11.428;2022-11-11T15:51:30;6.32;;;4.50;;
38224;SDS011;24025;48.138;11.428;2022-11-11T15:54:08;8.15;;;4.32;;
38224;SDS011;24025;48.138;11.428;2022-11-11T15:56:44;6.50;;;4.20;;
38224;SDS011;24025;48.138;11.428;2022-11-11T15:59:20;5.45;;;4.03;;
38224;SDS011;24025;48.138;11.428;2022-11-11T16:01:52;10.90;;;5.25;;
38224;SDS011;24025;48.138;11.428;2022-11-11T16:04:23;13.25;;;5.38;;
38224;SDS011;24025;48.138;11.428;2022-11-11T16:06:54;6.95;;;4.82;;
38224;SDS011;24025;48.138;11.428;2022-11-11T16:09:25;10.13;;;5.28;;
38224;SDS011;24025;48.138;11.428;2022-11-11T16:11:58;13.77;;;4.78;;
38224;SDS011;24025;48.138;11.428;2022-11-11T16:14:31;7.45;;;4.68;;
38224;SDS011;24025;48.138;11.428;2022-11-11T16:17:10;12.98;;;4.85;;
38224;SDS011;24025;48.138;11.428;2022-11-11T16:19:43;7.53;;;4.53;;
38224;SDS011;24025;48.138;11.428;2022-11-11T16:24:48;7.43;;;4.07;;
38224;SDS011;24025;48.138;11.428;2022-11-11T16:27:21;9.85;;;5.32;;
38224;SDS011;24025;48.138;11.428;2022-11-11T16:29:55;13.13;;;6.05;;
38224;SDS011;24025;48.138;11.428;2022-11-11T16:33:02;11.90;;;5.10;;
38224;SDS011;24025;48.138;11.428;2022-11-11T16:35:35;9.23;;;5.55;;
38224;SDS011;24025;48.138;11.428;2022-11-11T16:38:07;11.30;;;5.00;;
38224;SDS011;24025;48.138;11.428;2022-11-11T16:40:41;10.73;;;4.32;;
38224;SDS011;24025;48.138;11.428;2022-11-11T16:46:03;9.65;;;5.38;;
38224;SDS011;24025;48.138;11.428;2022-11-11T16:51:12;7.10;;;4.65;;
38224;SDS011;24025;48.138;11.428;2022-11-11T16:53:53;9.07;;;4.53;;
38224;SDS011;24025;48.138;11.428;2022-11-11T16:56:35;10.48;;;4.28;;
38224;SDS011;24025;48.138;11.428;2022-11-11T17:04:25;9.30;;;5.32;;
38224;SDS011;24025;48.138;11.428;2022-11-11T17:07:29;11.20;;;6.10;;
38224;SDS011;24025;48.138;11.428;2022-11-11T17:10:19;14.23;;;7.43;;
38224;SDS011;24025;48.138;11.428;2022-11-11T17:12:52;19.90;;;9.50;;
38224;SDS011;24025;48.138;11.428;2022-11-11T17:15:22;13.95;;;7.38;;
38224;SDS011;24025;48.138;11.428;2022-11-11T17:17:52;11.80;;;7.57;;
38224;SDS011;24025;48.138;11.428;2022-11-11T17:20:23;11.45;;;6.20;;
38224;SDS011;24025;48.138;11.428;2022-11-11T17:22:54;10.32;;;5.97;;
38224;SDS011;24025;48.138;11.428;2022-11-11T17:27:56;15.63;;;6.10;;
38224;SDS011;24025;48.138;11.428;2022-11-11T17:30:28;12.05;;;6.70;;
38224;SDS011;24025;48.138;11.428;2022-11-11T17:32:58;15.23;;;5.30;;
38224;SDS011;24025;48.138;11.428;2022-11-11T17:35:28;10.10;;;6.07;;
38224;SDS011;24025;48.138;11.428;2022-11-11T17:37:59;10.95;;;6.28;;
38224;SDS011;24025;48.138;11.428;2022-11-11T17:40:29;12.75;;;6.68;;
38224;SDS011;24025;48.138;11.428;2022-11-11T17:43:00;11.63;;;6.15;;
38224;SDS011;24025;48.138;11.428;2022-11-11T17:45:30;12.73;;;6.93;;
38224;SDS011;24025;48.138;11.428;2022-11-11T17:48:01;10.88;;;5.70;;
38224;SDS011;24025;48.138;11.428;2022-11-11T17:50:32;9.68;;;5.45;;
38224;SDS011;24025;48.138;11.428;2022-11-11T17:53:03;11.63;;;5.10;;
38224;SDS011;24025;48.138;11.428;2022-11-11T17:55:34;10.50;;;5.13;;
38224;SDS011;24025;48.138;11.428;2022-11-11T17:58:05;7.95;;;5.05;;
38224;SDS011;24025;48.138;11.428;2022-11-11T18:00:35;12.48;;;5.50;;
38224;SDS011;24025;48.138;11.428;2022-11-11T18:03:06;14.82;;;6.75;;
38224;SDS011;24025;48.138;11.428;2022-11-11T18:05:36;9.18;;;5.50;;
38224;SDS011;24025;48.138;11.428;2022-11-11T18:08:07;9.00;;;6.35;;
38224;SDS011;24025;48.138;11.428;2022-11-11T18:10:37;11.98;;;6.07;;
38224;SDS011;24025;48.138;11.428;2022-11-11T18:13:08;8.52;;;5.68;;
38224;SDS011;24025;48.138;11.428;2022-11-11T18:15:38;10.25;;;6.00;;
38224;SDS011;24025;48.138;11.428;2022-11-11T18:18:09;14.40;;;7.60;;
38224;SDS011;24025;48.138;11.428;2022-11-11T18:20:39;15.70;;;8.48;;